sensor_id;sensor_type;location;lat;lon;timestamp;P1;durP1;ratioP1;P2;durP2;ratioP2
8297;SDS011;4187;42.778;23.242;2022-07-09T00:00:17;3.92;;;3.47;;
8297;SDS011;4187;42.778;23.242;2022-07-09T00:02:44;4.88;;;3.40;;
8297;SDS011;4187;42.778;23.242;2022-07-09T00:05:12;7.88;;;3.47;;
8297;SDS011;4187;42.778;23.242;2022-07-09T00:07:39;3.53;;;3.22;;
8297;SDS011;4187;42.778;23.242;2022-07-09T00:10:07;4.57;;;3.40;;
8297;SDS011;4187;42.778;23.242;2022-07-09T00:12:34;4.43;;;3.60;;
8297;SDS011;4187;42.778;23.242;2022-07-09T00:15:00;4.05;;;3.60;;
8297;SDS011;4187;42.778;23.242;2022-07-09T00:17:27;4.43;;;3.83;;
8297;SDS011;4187;42.778;23.242;2022-07-09T00:19:55;6.25;;;3.28;;
8297;SDS011;4187;42.778;23.242;2022-07-09T00:22:23;3.70;;;3.40;;
8297;SDS011;4187;42.778;23.242;2022-07-09T00:24:50;3.65;;;3.35;;
8297;SDS011;4187;42.778;23.242;2022-07-09T00:27:17;4.30;;;3.90;;
8297;SDS011;4187;42.778;23.242;2022-07-09T00:29:43;3.97;;;3.35;;
8297;SDS011;4187;42.778;23.242;2022-07-09T00:32:10;3.75;;;3.45;;
8297;SDS011;4187;42.778;23.242;2022-07-09T00:34:37;4.00;;;3.60;;
8297;SDS011;4187;42.778;23.242;2022-07-09T00:37:04;4.20;;;3.63;;
8297;SDS011;4187;42.778;23.242;2022-07-09T00:39:32;5.90;;;3.35;;
8297;SDS011;4187;42.778;23.242;2022-07-09T00:42:03;4.03;;;3.70;;
8297;SDS011;4187;42.778;23.242;2022-07-09T00:44:30;5.80;;;3.35;;
8297;SDS011;4187;42.778;23.242;2022-07-09T00:46:57;6.80;;;3.47;;
8297;SDS011;4187;42.778;23.242;2022-07-09T00:49:24;3.60;;;3.30;;
8297;SDS011;4187;42.778;23.242;2022-07-09T00:51:53;3.83;;;3.53;;
8297;SDS011;4187;42.778;23.242;2022-07-09T00:54:21;3.80;;;3.40;;
8297;SDS011;4187;42.778;23.242;2022-07-09T00:56:50;3.50;;;3.20;;
8297;SDS011;4187;42.778;23.242;2022-07-09T00:59:18;4.82;;;3.45;;
8297;SDS011;4187;42.778;23.242;2022-07-09T01:01:48;3.50;;;3.22;;
8297;SDS011;4187;42.778;23.242;2022-07-09T01:04:15;4.60;;;3.60;;
8297;SDS011;4187;42.778;23.242;2022-07-09T01:06:43;3.63;;;3.33;;
8297;SDS011;4187;42.778;23.242;2022-07-09T01:09:09;3.67;;;3.38;;
8297;SDS011;4187;42.778;23.242;2022-07-09T01:11:38;3.63;;;3.33;;
8297;SDS011;4187;42.778;23.242;2022-07-09T01:14:07;3.95;;;3.28;;
8297;SDS011;4187;42.778;23.242;2022-07-09T01:16:34;3.40;;;3.10;;
8297;SDS011;4187;42.778;23.242;2022-07-09T01:19:03;3.72;;;3.20;;
8297;SDS011;4187;42.778;23.242;2022-07-09T01:21:31;4.38;;;3.50;;
8297;SDS011;4187;42.778;23.242;2022-07-09T01:23:59;3.63;;;3.33;;
8297;SDS011;4187;42.778;23.242;2022-07-09T01:26:25;3.58;;;3.28;;
8297;SDS011;4187;42.778;23.242;2022-07-09T01:28:53;3.85;;;3.55;;
8297;SDS011;4187;42.778;23.242;2022-07-09T01:31:19;4.28;;;3.72;;
8297;SDS011;4187;42.778;23.242;2022-07-09T01:33:46;4.30;;;3.90;;
8297;SDS011;4187;42.778;23.242;2022-07-09T01:36:13;4.25;;;3.95;;
8297;SDS011;4187;42.778;23.242;2022-07-09T01:38:43;5.35;;;3.75;;
8297;SDS011;4187;42.778;23.242;2022-07-09T01:41:09;5.55;;;3.65;;
8297;SDS011;4187;42.778;23.242;2022-07-09T01:43:36;4.07;;;3.50;;
8297;SDS011;4187;42.778;23.242;2022-07-09T01:46:03;3.55;;;3.20;;
8297;SDS011;4187;42.778;23.242;2022-07-09T01:48:32;3.67;;;3.38;;
8297;SDS011;4187;42.778;23.242;2022-07-09T01:51:00;3.90;;;3.60;;
8297;SDS011;4187;42.778;23.242;2022-07-09T01:53:27;3.67;;;3.20;;
8297;SDS011;4187;42.778;23.242;2022-07-09T01:55:55;5.20;;;3.45;;
8297;SDS011;4187;42.778;23.242;2022-07-09T01:58:22;4.05;;;3.25;;
8297;SDS011;4187;42.778;23.242;2022-07-09T02:00:49;3.13;;;2.92;;
8297;SDS011;4187;42.778;23.242;2022-07-09T02:03:15;4.60;;;2.97;;
8297;SDS011;4187;42.778;23.242;2022-07-09T02:05:42;3.42;;;3.10;;
8297;SDS011;4187;42.778;23.242;2022-07-09T02:08:09;3.60;;;3.30;;
8297;SDS011;4187;42.778;23.242;2022-07-09T02:10:36;3.90;;;3.03;;
8297;SDS011;4187;42.778;23.242;2022-07-09T02:13:04;4.60;;;3.40;;
8297;SDS011;4187;42.778;23.242;2022-07-09T02:15:31;3.85;;;2.83;;
8297;SDS011;4187;42.778;23.242;2022-07-09T02:17:59;3.58;;;3.30;;
8297;SDS011;4187;42.778;23.242;2022-07-09T02:20:26;4.28;;;3.30;;
8297;SDS011;4187;42.778;23.242;2022-07-09T02:22:53;3.42;;;3.13;;
8297;SDS011;4187;42.778;23.242;2022-07-09T02:25:20;4.53;;;3.00;;
8297;SDS011;4187;42.778;23.242;2022-07-09T02:27:47;3.40;;;3.10;;
8297;SDS011;4187;42.778;23.242;2022-07-09T02:30:15;3.30;;;2.78;;
8297;SDS011;4187;42.778;23.242;2022-07-09T02:32:42;3.22;;;2.92;;
8297;SDS011;4187;42.778;23.242;2022-07-09T02:35:08;3.70;;;3.30;;
8297;SDS011;4187;42.778;23.242;2022-07-09T02:37:35;3.25;;;3.03;;
8297;SDS011;4187;42.778;23.242;2022-07-09T02:40:02;3.60;;;3.30;;
8297;SDS011;4187;42.778;23.242;2022-07-09T02:42:30;3.47;;;3.17;;
8297;SDS011;4187;42.778;23.242;2022-07-09T02:44:57;4.20;;;3.35;;
8297;SDS011;4187;42.778;23.242;2022-07-09T02:47:25;3.35;;;3.15;;
8297;SDS011;4187;42.778;23.242;2022-07-09T02:49:52;3.67;;;3.30;;
8297;SDS011;4187;42.778;23.242;2022-07-09T02:52:19;3.30;;;3.10;;
8297;SDS011;4187;42.778;23.242;2022-07-09T02:54:45;3.47;;;2.97;;
8297;SDS011;4187;42.778;23.242;2022-07-09T02:57:12;4.00;;;3.63;;
8297;SDS011;4187;42.778;23.242;2022-07-09T02:59:39;3.60;;;3.30;;
8297;SDS011;4187;42.778;23.242;2022-07-09T03:02:06;4.28;;;3.15;;
8297;SDS011;4187;42.778;23.242;2022-07-09T03:04:34;3.83;;;3.53;;
8297;SDS011;4187;42.778;23.242;2022-07-09T03:07:01;3.10;;;2.80;;
8297;SDS011;4187;42.778;23.242;2022-07-09T03:09:28;3.83;;;3.25;;
8297;SDS011;4187;42.778;23.242;2022-07-09T03:11:55;3.45;;;3.15;;
8297;SDS011;4187;42.778;23.242;2022-07-09T03:14:21;3.13;;;2.80;;
8297;SDS011;4187;42.778;23.242;2022-07-09T03:16:48;4.22;;;2.72;;
8297;SDS011;4187;42.778;23.242;2022-07-09T03:19:15;3.65;;;3.10;;
8297;SDS011;4187;42.778;23.242;2022-07-09T03:21:43;2.97;;;2.75;;
8297;SDS011;4187;42.778;23.242;2022-07-09T03:24:10;3.03;;;2.65;;
8297;SDS011;4187;42.778;23.242;2022-07-09T03:26:37;3.65;;;3.20;;
8297;SDS011;4187;42.778;23.242;2022-07-09T03:29:04;2.85;;;2.65;;
8297;SDS011;4187;42.778;23.242;2022-07-09T03:31:33;3.90;;;2.95;;
8297;SDS011;4187;42.778;23.242;2022-07-09T03:34:00;3.50;;;3.17;;
8297;SDS011;4187;42.778;23.242;2022-07-09T03:36:27;3.75;;;3.42;;
8297;SDS011;4187;42.778;23.242;2022-07-09T03:38:55;3.90;;;3.60;;
8297;SDS011;4187;42.778;23.242;2022-07-09T03:41:22;3.67;;;3.38;;
8297;SDS011;4187;42.778;23.242;2022-07-09T03:43:49;4.95;;;3.70;;
8297;SDS011;4187;42.778;23.242;2022-07-09T03:46:16;6.70;;;3.33;;
8297;SDS011;4187;42.778;23.242;2022-07-09T03:48:42;3.85;;;3.47;;
8297;SDS011;4187;42.778;23.242;2022-07-09T03:51:09;7.07;;;3.53;;
8297;SDS011;4187;42.778;23.242;2022-07-09T03:53:36;3.83;;;3.20;;
8297;SDS011;4187;42.778;23.242;2022-07-09T03:56:05;3.28;;;2.97;;
8297;SDS011;4187;42.778;23.242;2022-07-09T03:58:32;5.97;;;3.47;;
8297;SDS011;4187;42.778;23.242;2022-07-09T04:01:03;4.05;;;3.67;;
8297;SDS011;4187;42.778;23.242;2022-07-09T04:03:30;3.80;;;3.45;;
8297;SDS011;4187;42.778;23.242;2022-07-09T04:05:57;5.15;;;3.80;;
8297;SDS011;4187;42.778;23.242;2022-07-09T04:08:24;3.55;;;3.28;;
8297;SDS011;4187;42.778;23.242;2022-07-09T04:10:51;3.25;;;3.05;;
8297;SDS011;4187;42.778;23.242;2022-07-09T04:13:19;4.53;;;3.42;;
8297;SDS011;4187;42.778;23.242;2022-07-09T04:15:46;3.63;;;3.33;;
8297;SDS011;4187;42.778;23.242;2022-07-09T04:18:13;3.95;;;3.65;;
8297;SDS011;4187;42.778;23.242;2022-07-09T04:20:40;3.63;;;3.33;;
8297;SDS011;4187;42.778;23.242;2022-07-09T04:23:07;4.00;;;3.60;;
8297;SDS011;4187;42.778;23.242;2022-07-09T04:25:34;4.50;;;4.03;;
8297;SDS011;4187;42.778;23.242;2022-07-09T04:28:01;4.95;;;4.18;;
8297;SDS011;4187;42.778;23.242;2022-07-09T04:30:29;4.13;;;3.63;;
8297;SDS011;4187;42.778;23.242;2022-07-09T04:32:56;5.05;;;4.03;;
8297;SDS011;4187;42.778;23.242;2022-07-09T04:35:23;3.72;;;3.40;;
8297;SDS011;4187;42.778;23.242;2022-07-09T04:37:50;4.15;;;3.85;;
8297;SDS011;4187;42.778;23.242;2022-07-09T04:40:17;5.95;;;4.45;;
8297;SDS011;4187;42.778;23.242;2022-07-09T04:42:44;5.03;;;4.07;;
8297;SDS011;4187;42.778;23.242;2022-07-09T04:45:10;4.22;;;3.83;;
8297;SDS011;4187;42.778;23.242;2022-07-09T04:47:39;6.70;;;4.43;;
8297;SDS011;4187;42.778;23.242;2022-07-09T04:50:06;6.60;;;3.65;;
8297;SDS011;4187;42.778;23.242;2022-07-09T04:52:33;4.38;;;4.07;;
8297;SDS011;4187;42.778;23.242;2022-07-09T04:55:00;4.00;;;3.70;;
8297;SDS011;4187;42.778;23.242;2022-07-09T04:57:27;3.83;;;3.13;;
8297;SDS011;4187;42.778;23.242;2022-07-09T04:59:57;8.07;;;4.20;;
8297;SDS011;4187;42.778;23.242;2022-07-09T05:02:24;3.78;;;3.47;;
8297;SDS011;4187;42.778;23.242;2022-07-09T05:04:52;3.58;;;3.28;;
8297;SDS011;4187;42.778;23.242;2022-07-09T05:07:19;3.40;;;3.15;;
8297;SDS011;4187;42.778;23.242;2022-07-09T05:09:46;4.18;;;2.90;;
8297;SDS011;4187;42.778;23.242;2022-07-09T05:12:12;4.20;;;2.83;;
8297;SDS011;4187;42.778;23.242;2022-07-09T05:14:39;3.17;;;2.88;;
8297;SDS011;4187;42.778;23.242;2022-07-09T05:17:06;3.90;;;3.58;;
8297;SDS011;4187;42.778;23.242;2022-07-09T05:19:33;4.80;;;2.90;;
8297;SDS011;4187;42.778;23.242;2022-07-09T05:22:01;3.53;;;2.90;;
8297;SDS011;4187;42.778;23.242;2022-07-09T05:24:28;3.60;;;3.30;;
8297;SDS011;4187;42.778;23.242;2022-07-09T05:26:55;6.28;;;3.13;;
8297;SDS011;4187;42.778;23.242;2022-07-09T05:29:22;3.13;;;2.85;;
8297;SDS011;4187;42.778;23.242;2022-07-09T05:31:49;4.18;;;2.65;;
8297;SDS011;4187;42.778;23.242;2022-07-09T05:34:16;3.30;;;3.00;;
8297;SDS011;4187;42.778;23.242;2022-07-09T05:36:43;2.75;;;2.55;;
8297;SDS011;4187;42.778;23.242;2022-07-09T05:39:11;5.00;;;2.95;;
8297;SDS011;4187;42.778;23.242;2022-07-09T05:41:38;2.88;;;2.50;;
8297;SDS011;4187;42.778;23.242;2022-07-09T05:44:05;4.25;;;3.20;;
8297;SDS011;4187;42.778;23.242;2022-07-09T05:46:32;3.83;;;3.03;;
8297;SDS011;4187;42.778;23.242;2022-07-09T05:48:59;3.53;;;3.20;;
8297;SDS011;4187;42.778;23.242;2022-07-09T05:51:26;2.78;;;2.58;;
8297;SDS011;4187;42.778;23.242;2022-07-09T05:53:52;4.20;;;2.85;;
8297;SDS011;4187;42.778;23.242;2022-07-09T05:56:21;2.88;;;2.50;;
8297;SDS011;4187;42.778;23.242;2022-07-09T05:58:48;4.60;;;2.83;;
8297;SDS011;4187;42.778;23.242;2022-07-09T06:01:15;5.70;;;2.90;;
8297;SDS011;4187;42.778;23.242;2022-07-09T06:03:41;3.30;;;2.78;;
8297;SDS011;4187;42.778;23.242;2022-07-09T06:06:08;3.03;;;2.83;;
8297;SDS011;4187;42.778;23.242;2022-07-09T06:08:35;3.40;;;2.50;;
8297;SDS011;4187;42.778;23.242;2022-07-09T06:11:03;2.83;;;2.55;;
8297;SDS011;4187;42.778;23.242;2022-07-09T06:13:31;2.85;;;2.60;;
8297;SDS011;4187;42.778;23.242;2022-07-09T06:15:58;2.85;;;2.60;;
8297;SDS011;4187;42.778;23.242;2022-07-09T06:18:25;3.13;;;2.78;;
8297;SDS011;4187;42.778;23.242;2022-07-09T06:20:52;3.22;;;3.03;;
8297;SDS011;4187;42.778;23.242;2022-07-09T06:23:19;2.78;;;2.50;;
8297;SDS011;4187;42.778;23.242;2022-07-09T06:25:46;4.47;;;3.10;;
8297;SDS011;4187;42.778;23.242;2022-07-09T06:28:13;4.28;;;2.88;;
8297;SDS011;4187;42.778;23.242;2022-07-09T06:30:41;3.20;;;2.90;;
8297;SDS011;4187;42.778;23.242;2022-07-09T06:33:09;2.75;;;2.53;;
8297;SDS011;4187;42.778;23.242;2022-07-09T06:35:35;3.25;;;2.95;;
8297;SDS011;4187;42.778;23.242;2022-07-09T06:38:02;3.60;;;3.30;;
8297;SDS011;4187;42.778;23.242;2022-07-09T06:40:29;3.00;;;2.72;;
8297;SDS011;4187;42.778;23.242;2022-07-09T06:42:56;3.17;;;2.85;;
8297;SDS011;4187;42.778;23.242;2022-07-09T06:45:23;3.95;;;3.55;;
8297;SDS011;4187;42.778;23.242;2022-07-09T06:47:51;3.80;;;3.13;;
8297;SDS011;4187;42.778;23.242;2022-07-09T06:50:19;3.40;;;3.10;;
8297;SDS011;4187;42.778;23.242;2022-07-09T06:52:46;5.03;;;3.70;;
8297;SDS011;4187;42.778;23.242;2022-07-09T06:55:12;3.60;;;3.30;;
8297;SDS011;4187;42.778;23.242;2022-07-09T06:57:39;4.20;;;3.80;;
8297;SDS011;4187;42.778;23.242;2022-07-09T07:00:07;3.70;;;3.40;;
8297;SDS011;4187;42.778;23.242;2022-07-09T07:02:34;4.45;;;3.53;;
8297;SDS011;4187;42.778;23.242;2022-07-09T07:05:02;6.18;;;3.33;;
8297;SDS011;4187;42.778;23.242;2022-07-09T07:07:30;3.65;;;3.38;;
8297;SDS011;4187;42.778;23.242;2022-07-09T07:09:56;3.95;;;3.53;;
8297;SDS011;4187;42.778;23.242;2022-07-09T07:12:24;4.82;;;3.33;;
8297;SDS011;4187;42.778;23.242;2022-07-09T07:14:50;4.55;;;3.33;;
8297;SDS011;4187;42.778;23.242;2022-07-09T07:17:17;4.40;;;3.45;;
8297;SDS011;4187;42.778;23.242;2022-07-09T07:19:44;4.80;;;3.45;;
8297;SDS011;4187;42.778;23.242;2022-07-09T07:22:12;3.70;;;3.40;;
8297;SDS011;4187;42.778;23.242;2022-07-09T07:24:39;4.65;;;3.65;;
8297;SDS011;4187;42.778;23.242;2022-07-09T07:27:06;3.90;;;3.60;;
8297;SDS011;4187;42.778;23.242;2022-07-09T07:29:33;4.82;;;3.45;;
8297;SDS011;4187;42.778;23.242;2022-07-09T07:32:01;3.45;;;3.10;;
8297;SDS011;4187;42.778;23.242;2022-07-09T07:34:28;3.58;;;2.92;;
8297;SDS011;4187;42.778;23.242;2022-07-09T07:36:55;3.55;;;3.25;;
8297;SDS011;4187;42.778;23.242;2022-07-09T07:39:23;3.63;;;3.15;;
8297;SDS011;4187;42.778;23.242;2022-07-09T07:41:51;3.50;;;3.20;;
8297;SDS011;4187;42.778;23.242;2022-07-09T07:44:18;3.78;;;2.80;;
8297;SDS011;4187;42.778;23.242;2022-07-09T07:46:46;3.22;;;2.92;;
8297;SDS011;4187;42.778;23.242;2022-07-09T07:49:12;4.40;;;3.25;;
8297;SDS011;4187;42.778;23.242;2022-07-09T07:51:39;4.53;;;3.30;;
8297;SDS011;4187;42.778;23.242;2022-07-09T07:54:07;4.15;;;3.20;;
8297;SDS011;4187;42.778;23.242;2022-07-09T07:56:36;3.60;;;3.00;;
8297;SDS011;4187;42.778;23.242;2022-07-09T07:59:04;4.70;;;3.55;;
8297;SDS011;4187;42.778;23.242;2022-07-09T08:01:31;3.60;;;3.40;;
8297;SDS011;4187;42.778;23.242;2022-07-09T08:03:58;4.05;;;3.75;;
8297;SDS011;4187;42.778;23.242;2022-07-09T08:06:25;3.28;;;2.97;;
8297;SDS011;4187;42.778;23.242;2022-07-09T08:08:52;3.22;;;2.92;;
8297;SDS011;4187;42.778;23.242;2022-07-09T08:11:18;5.07;;;3.20;;
8297;SDS011;4187;42.778;23.242;2022-07-09T08:13:47;3.70;;;3.40;;
8297;SDS011;4187;42.778;23.242;2022-07-09T08:16:13;4.30;;;3.13;;
8297;SDS011;4187;42.778;23.242;2022-07-09T08:18:40;3.28;;;3.08;;
8297;SDS011;4187;42.778;23.242;2022-07-09T08:21:07;3.63;;;3.33;;
8297;SDS011;4187;42.778;23.242;2022-07-09T08:23:34;3.30;;;3.10;;
8297;SDS011;4187;42.778;23.242;2022-07-09T08:26:16;3.60;;;3.30;;
8297;SDS011;4187;42.778;23.242;2022-07-09T08:28:45;3.35;;;3.05;;
8297;SDS011;4187;42.778;23.242;2022-07-09T08:31:13;3.70;;;3.15;;
8297;SDS011;4187;42.778;23.242;2022-07-09T08:33:40;3.42;;;3.20;;
8297;SDS011;4187;42.778;23.242;2022-07-09T08:36:07;3.88;;;3.40;;
8297;SDS011;4187;42.778;23.242;2022-07-09T08:38:34;3.17;;;2.90;;
8297;SDS011;4187;42.778;23.242;2022-07-09T08:41:01;3.92;;;3.53;;
8297;SDS011;4187;42.778;23.242;2022-07-09T08:43:31;5.82;;;3.30;;
8297;SDS011;4187;42.778;23.242;2022-07-09T08:46:00;3.28;;;2.97;;
8297;SDS011;4187;42.778;23.242;2022-07-09T08:48:28;3.42;;;3.22;;
8297;SDS011;4187;42.778;23.242;2022-07-09T08:50:55;3.42;;;2.92;;
8297;SDS011;4187;42.778;23.242;2022-07-09T08:53:23;3.33;;;3.03;;
8297;SDS011;4187;42.778;23.242;2022-07-09T08:55:53;3.50;;;3.20;;
8297;SDS011;4187;42.778;23.242;2022-07-09T08:58:20;2.90;;;2.60;;
8297;SDS011;4187;42.778;23.242;2022-07-09T09:00:47;3.60;;;2.58;;
8297;SDS011;4187;42.778;23.242;2022-07-09T09:03:17;3.00;;;2.80;;
8297;SDS011;4187;42.778;23.242;2022-07-09T09:05:44;3.40;;;3.10;;
8297;SDS011;4187;42.778;23.242;2022-07-09T09:08:16;3.35;;;3.05;;
8297;SDS011;4187;42.778;23.242;2022-07-09T09:10:45;2.95;;;2.67;;
8297;SDS011;4187;42.778;23.242;2022-07-09T09:13:13;2.47;;;2.17;;
8297;SDS011;4187;42.778;23.242;2022-07-09T09:15:41;2.83;;;2.47;;
8297;SDS011;4187;42.778;23.242;2022-07-09T09:18:08;2.58;;;2.33;;
8297;SDS011;4187;42.778;23.242;2022-07-09T09:20:37;2.65;;;2.45;;
8297;SDS011;4187;42.778;23.242;2022-07-09T09:23:15;3.10;;;2.90;;
8297;SDS011;4187;42.778;23.242;2022-07-09T09:25:42;3.40;;;3.10;;
8297;SDS011;4187;42.778;23.242;2022-07-09T09:28:09;4.65;;;2.70;;
8297;SDS011;4187;42.778;23.242;2022-07-09T09:30:40;2.97;;;2.75;;
8297;SDS011;4187;42.778;23.242;2022-07-09T09:33:09;3.85;;;2.60;;
8297;SDS011;4187;42.778;23.242;2022-07-09T09:35:43;4.68;;;2.05;;
8297;SDS011;4187;42.778;23.242;2022-07-09T09:38:10;2.55;;;2.35;;
8297;SDS011;4187;42.778;23.242;2022-07-09T09:40:37;2.08;;;1.98;;
8297;SDS011;4187;42.778;23.242;2022-07-09T09:43:05;2.58;;;2.38;;
8297;SDS011;4187;42.778;23.242;2022-07-09T09:45:33;2.03;;;1.92;;
8297;SDS011;4187;42.778;23.242;2022-07-09T09:48:01;4.72;;;2.92;;
8297;SDS011;4187;42.778;23.242;2022-07-09T09:50:31;2.80;;;2.60;;
8297;SDS011;4187;42.778;23.242;2022-07-09T09:53:01;2.65;;;2.45;;
8297;SDS011;4187;42.778;23.242;2022-07-09T09:55:29;2.88;;;2.60;;
8297;SDS011;4187;42.778;23.242;2022-07-09T09:57:57;3.20;;;3.00;;
8297;SDS011;4187;42.778;23.242;2022-07-09T10:00:25;3.33;;;2.83;;
8297;SDS011;4187;42.778;23.242;2022-07-09T10:02:52;3.83;;;3.45;;
8297;SDS011;4187;42.778;23.242;2022-07-09T10:05:19;2.70;;;2.50;;
8297;SDS011;4187;42.778;23.242;2022-07-09T10:07:46;3.05;;;2.85;;
8297;SDS011;4187;42.778;23.242;2022-07-09T10:10:18;2.70;;;2.50;;
8297;SDS011;4187;42.778;23.242;2022-07-09T10:12:46;2.70;;;2.50;;
8297;SDS011;4187;42.778;23.242;2022-07-09T10:15:20;2.15;;;2.05;;
8297;SDS011;4187;42.778;23.242;2022-07-09T10:17:48;2.65;;;2.45;;
8297;SDS011;4187;42.778;23.242;2022-07-09T10:20:15;2.63;;;2.42;;
8297;SDS011;4187;42.778;23.242;2022-07-09T10:22:42;6.50;;;2.25;;
8297;SDS011;4187;42.778;23.242;2022-07-09T10:25:11;2.00;;;1.90;;
8297;SDS011;4187;42.778;23.242;2022-07-09T10:27:50;2.33;;;2.05;;
8297;SDS011;4187;42.778;23.242;2022-07-09T10:30:23;2.08;;;1.88;;
8297;SDS011;4187;42.778;23.242;2022-07-09T10:33:01;1.95;;;1.77;;
8297;SDS011;4187;42.778;23.242;2022-07-09T10:35:30;2.33;;;1.75;;
8297;SDS011;4187;42.778;23.242;2022-07-09T10:38:04;2.25;;;2.05;;
8297;SDS011;4187;42.778;23.242;2022-07-09T10:40:37;2.28;;;1.60;;
8297;SDS011;4187;42.778;23.242;2022-07-09T10:43:06;2.33;;;2.08;;
8297;SDS011;4187;42.778;23.242;2022-07-09T10:45:36;3.45;;;2.00;;
8297;SDS011;4187;42.778;23.242;2022-07-09T10:48:04;1.98;;;1.77;;
8297;SDS011;4187;42.778;23.242;2022-07-09T10:50:35;2.03;;;1.90;;
8297;SDS011;4187;42.778;23.242;2022-07-09T10:53:03;3.17;;;1.92;;
8297;SDS011;4187;42.778;23.242;2022-07-09T10:55:30;2.42;;;2.20;;
8297;SDS011;4187;42.778;23.242;2022-07-09T10:57:58;2.75;;;2.10;;
8297;SDS011;4187;42.778;23.242;2022-07-09T11:00:27;3.85;;;2.30;;
8297;SDS011;4187;42.778;23.242;2022-07-09T11:02:56;2.17;;;1.90;;
8297;SDS011;4187;42.778;23.242;2022-07-09T11:05:24;2.38;;;2.17;;
8297;SDS011;4187;42.778;23.242;2022-07-09T11:07:56;3.75;;;3.10;;
8297;SDS011;4187;42.778;23.242;2022-07-09T11:10:27;2.83;;;2.30;;
8297;SDS011;4187;42.778;23.242;2022-07-09T11:12:55;2.30;;;2.10;;
8297;SDS011;4187;42.778;23.242;2022-07-09T11:15:24;2.25;;;2.05;;
8297;SDS011;4187;42.778;23.242;2022-07-09T11:18:01;2.40;;;2.20;;
8297;SDS011;4187;42.778;23.242;2022-07-09T11:20:30;2.30;;;2.03;;
8297;SDS011;4187;42.778;23.242;2022-07-09T11:22:59;2.50;;;2.15;;
8297;SDS011;4187;42.778;23.242;2022-07-09T11:25:26;2.38;;;2.17;;
8297;SDS011;4187;42.778;23.242;2022-07-09T11:27:54;2.00;;;1.90;;
8297;SDS011;4187;42.778;23.242;2022-07-09T11:30:20;2.03;;;1.92;;
8297;SDS011;4187;42.778;23.242;2022-07-09T11:32:48;3.40;;;2.08;;
8297;SDS011;4187;42.778;23.242;2022-07-09T11:35:26;3.05;;;2.13;;
8297;SDS011;4187;42.778;23.242;2022-07-09T11:37:55;2.40;;;2.15;;
8297;SDS011;4187;42.778;23.242;2022-07-09T11:40:22;2.33;;;2.10;;
8297;SDS011;4187;42.778;23.242;2022-07-09T11:42:50;1.90;;;1.80;;
8297;SDS011;4187;42.778;23.242;2022-07-09T11:45:21;2.30;;;2.10;;
8297;SDS011;4187;42.778;23.242;2022-07-09T11:48:01;4.43;;;2.10;;
8297;SDS011;4187;42.778;23.242;2022-07-09T11:50:32;2.30;;;2.08;;
8297;SDS011;4187;42.778;23.242;2022-07-09T11:52:59;2.83;;;1.80;;
8297;SDS011;4187;42.778;23.242;2022-07-09T11:55:29;4.20;;;1.92;;
8297;SDS011;4187;42.778;23.242;2022-07-09T11:57:57;1.92;;;1.63;;
8297;SDS011;4187;42.778;23.242;2022-07-09T12:00:26;2.67;;;1.80;;
8297;SDS011;4187;42.778;23.242;2022-07-09T12:02:53;2.60;;;2.00;;
8297;SDS011;4187;42.778;23.242;2022-07-09T12:05:24;2.15;;;1.90;;
8297;SDS011;4187;42.778;23.242;2022-07-09T12:07:57;1.83;;;1.73;;
8297;SDS011;4187;42.778;23.242;2022-07-09T12:10:25;2.13;;;2.03;;
8297;SDS011;4187;42.778;23.242;2022-07-09T12:12:53;2.47;;;2.13;;
8297;SDS011;4187;42.778;23.242;2022-07-09T12:15:20;2.35;;;2.15;;
8297;SDS011;4187;42.778;23.242;2022-07-09T12:17:50;2.20;;;1.80;;
8297;SDS011;4187;42.778;23.242;2022-07-09T12:20:19;2.55;;;1.80;;
8297;SDS011;4187;42.778;23.242;2022-07-09T12:22:47;1.98;;;1.88;;
8297;SDS011;4187;42.778;23.242;2022-07-09T12:25:15;1.73;;;1.63;;
8297;SDS011;4187;42.778;23.242;2022-07-09T12:27:42;3.45;;;1.90;;
8297;SDS011;4187;42.778;23.242;2022-07-09T12:30:09;2.28;;;1.88;;
8297;SDS011;4187;42.778;23.242;2022-07-09T12:32:37;2.35;;;1.75;;
8297;SDS011;4187;42.778;23.242;2022-07-09T12:35:04;2.10;;;1.90;;
8297;SDS011;4187;42.778;23.242;2022-07-09T12:37:32;2.10;;;1.95;;
8297;SDS011;4187;42.778;23.242;2022-07-09T12:39:59;1.83;;;1.70;;
8297;SDS011;4187;42.778;23.242;2022-07-09T12:42:27;1.90;;;1.80;;
8297;SDS011;4187;42.778;23.242;2022-07-09T12:44:54;1.95;;;1.85;;
8297;SDS011;4187;42.778;23.242;2022-07-09T12:47:21;3.75;;;2.10;;
8297;SDS011;4187;42.778;23.242;2022-07-09T12:49:48;2.17;;;1.98;;
8297;SDS011;4187;42.778;23.242;2022-07-09T12:52:15;2.25;;;2.05;;
8297;SDS011;4187;42.778;23.242;2022-07-09T12:54:42;2.72;;;2.00;;
8297;SDS011;4187;42.778;23.242;2022-07-09T12:57:09;2.10;;;1.90;;
8297;SDS011;4187;42.778;23.242;2022-07-09T12:59:37;2.03;;;1.88;;
8297;SDS011;4187;42.778;23.242;2022-07-09T13:02:04;3.35;;;1.73;;
8297;SDS011;4187;42.778;23.242;2022-07-09T13:04:32;1.65;;;1.55;;
8297;SDS011;4187;42.778;23.242;2022-07-09T13:06:59;2.13;;;1.70;;
8297;SDS011;4187;42.778;23.242;2022-07-09T13:09:27;3.85;;;2.35;;
8297;SDS011;4187;42.778;23.242;2022-07-09T13:11:54;1.88;;;1.70;;
8297;SDS011;4187;42.778;23.242;2022-07-09T13:14:21;2.13;;;1.73;;
8297;SDS011;4187;42.778;23.242;2022-07-09T13:16:49;2.05;;;1.77;;
8297;SDS011;4187;42.778;23.242;2022-07-09T13:19:16;4.00;;;1.83;;
8297;SDS011;4187;42.778;23.242;2022-07-09T13:21:42;2.33;;;1.98;;
8297;SDS011;4187;42.778;23.242;2022-07-09T13:24:09;1.90;;;1.80;;
8297;SDS011;4187;42.778;23.242;2022-07-09T13:26:36;1.95;;;1.85;;
8297;SDS011;4187;42.778;23.242;2022-07-09T13:29:03;2.00;;;1.90;;
8297;SDS011;4187;42.778;23.242;2022-07-09T13:31:30;2.22;;;1.90;;
8297;SDS011;4187;42.778;23.242;2022-07-09T13:33:58;3.47;;;1.67;;
8297;SDS011;4187;42.778;23.242;2022-07-09T13:36:25;3.50;;;1.95;;
8297;SDS011;4187;42.778;23.242;2022-07-09T13:38:52;2.92;;;1.90;;
8297;SDS011;4187;42.778;23.242;2022-07-09T13:41:18;2.20;;;1.85;;
8297;SDS011;4187;42.778;23.242;2022-07-09T13:43:45;1.92;;;1.83;;
8297;SDS011;4187;42.778;23.242;2022-07-09T13:46:12;4.32;;;2.40;;
8297;SDS011;4187;42.778;23.242;2022-07-09T13:48:39;2.22;;;1.90;;
8297;SDS011;4187;42.778;23.242;2022-07-09T13:51:07;2.13;;;1.90;;
8297;SDS011;4187;42.778;23.242;2022-07-09T13:53:34;1.90;;;1.80;;
8297;SDS011;4187;42.778;23.242;2022-07-09T13:56:01;2.30;;;2.10;;
8297;SDS011;4187;42.778;23.242;2022-07-09T13:58:29;2.97;;;1.90;;
8297;SDS011;4187;42.778;23.242;2022-07-09T14:00:56;2.28;;;1.90;;
8297;SDS011;4187;42.778;23.242;2022-07-09T14:03:23;2.30;;;2.10;;
8297;SDS011;4187;42.778;23.242;2022-07-09T14:05:50;2.00;;;1.90;;
8297;SDS011;4187;42.778;23.242;2022-07-09T14:08:18;1.95;;;1.85;;
8297;SDS011;4187;42.778;23.242;2022-07-09T14:10:47;2.28;;;2.13;;
8297;SDS011;4187;42.778;23.242;2022-07-09T14:13:15;2.13;;;2.03;;
8297;SDS011;4187;42.778;23.242;2022-07-09T14:15:42;2.25;;;1.83;;
8297;SDS011;4187;42.778;23.242;2022-07-09T14:18:09;2.25;;;2.08;;
8297;SDS011;4187;42.778;23.242;2022-07-09T14:20:36;2.10;;;2.00;;
8297;SDS011;4187;42.778;23.242;2022-07-09T14:23:03;2.17;;;2.08;;
8297;SDS011;4187;42.778;23.242;2022-07-09T14:25:31;2.40;;;2.20;;
8297;SDS011;4187;42.778;23.242;2022-07-09T14:27:58;2.58;;;2.38;;
8297;SDS011;4187;42.778;23.242;2022-07-09T14:30:25;2.97;;;2.78;;
8297;SDS011;4187;42.778;23.242;2022-07-09T14:32:52;6.63;;;4.72;;
8297;SDS011;4187;42.778;23.242;2022-07-09T14:35:18;2.60;;;2.40;;
8297;SDS011;4187;42.778;23.242;2022-07-09T14:37:45;2.17;;;2.08;;
8297;SDS011;4187;42.778;23.242;2022-07-09T14:40:12;2.30;;;2.00;;
8297;SDS011;4187;42.778;23.242;2022-07-09T14:42:40;2.45;;;2.10;;
8297;SDS011;4187;42.778;23.242;2022-07-09T14:45:07;2.38;;;2.20;;
8297;SDS011;4187;42.778;23.242;2022-07-09T14:47:34;2.50;;;2.30;;
8297;SDS011;4187;42.778;23.242;2022-07-09T14:50:01;2.60;;;2.40;;
8297;SDS011;4187;42.778;23.242;2022-07-09T14:52:29;2.35;;;2.22;;
8297;SDS011;4187;42.778;23.242;2022-07-09T14:54:56;2.35;;;2.15;;
8297;SDS011;4187;42.778;23.242;2022-07-09T14:57:22;2.53;;;2.33;;
8297;SDS011;4187;42.778;23.242;2022-07-09T14:59:51;2.30;;;2.20;;
8297;SDS011;4187;42.778;23.242;2022-07-09T15:02:18;2.35;;;2.15;;